sensor_id;sensor_type;location;lat;lon;timestamp;temperature;humidity
2042;DHT22;1026;51.460;7.252;2023-04-23T00:00:04;14.10;91.20
2042;DHT22;1026;51.460;7.252;2023-04-23T00:02:32;14.10;91.30
2042;DHT22;1026;51.460;7.252;2023-04-23T00:05:02;14.10;91.30
2042;DHT22;1026;51.460;7.252;2023-04-23T00:07:32;14.10;91.30
2042;DHT22;1026;51.460;7.252;2023-04-23T00:09:58;14.00;91.20
2042;DHT22;1026;51.460;7.252;2023-04-23T00:12:25;14.00;91.30
2042;DHT22;1026;51.460;7.252;2023-04-23T00:14:51;14.00;91.30
2042;DHT22;1026;51.460;7.252;2023-04-23T00:17:17;14.00;91.30
2042;DHT22;1026;51.460;7.252;2023-04-23T00:19:44;14.00;91.30
2042;DHT22;1026;51.460;7.252;2023-04-23T00:22:10;13.90;91.30
2042;DHT22;1026;51.460;7.252;2023-04-23T00:24:38;14.00;91.40
2042;DHT22;1026;51.460;7.252;2023-04-23T00:27:04;13.80;91.20
2042;DHT22;1026;51.460;7.252;2023-04-23T00:29:30;14.00;91.40
2042;DHT22;1026;51.460;7.252;2023-04-23T00:31:56;13.90;91.30
2042;DHT22;1026;51.460;7.252;2023-04-23T00:34:22;13.80;91.30
2042;DHT22;1026;51.460;7.252;2023-04-23T00:36:48;13.90;91.30
2042;DHT22;1026;51.460;7.252;2023-04-23T00:39:14;13.90;91.30
2042;DHT22;1026;51.460;7.252;2023-04-23T00:41:40;13.80;91.50
2042;DHT22;1026;51.460;7.252;2023-04-23T00:44:07;13.80;91.60
2042;DHT22;1026;51.460;7.252;2023-04-23T00:46:34;13.80;91.60
2042;DHT22;1026;51.460;7.252;2023-04-23T00:49:01;13.80;91.60
2042;DHT22;1026;51.460;7.252;2023-04-23T00:51:28;13.80;91.60
2042;DHT22;1026;51.460;7.252;2023-04-23T00:53:54;13.80;91.50
2042;DHT22;1026;51.460;7.252;2023-04-23T00:56:21;13.80;91.60
2042;DHT22;1026;51.460;7.252;2023-04-23T00:58:47;13.80;91.60
2042;DHT22;1026;51.460;7.252;2023-04-23T01:01:13;13.70;91.50
2042;DHT22;1026;51.460;7.252;2023-04-23T01:03:39;13.70;91.50
2042;DHT22;1026;51.460;7.252;2023-04-23T01:06:06;13.70;91.50
2042;DHT22;1026;51.460;7.252;2023-04-23T01:08:33;13.70;91.50
2042;DHT22;1026;51.460;7.252;2023-04-23T01:10:59;13.70;91.60
2042;DHT22;1026;51.460;7.252;2023-04-23T01:13:27;13.70;91.60
2042;DHT22;1026;51.460;7.252;2023-04-23T01:15:55;13.70;91.70
2042;DHT22;1026;51.460;7.252;2023-04-23T01:18:21;13.70;91.60
2042;DHT22;1026;51.460;7.252;2023-04-23T01:20:47;13.70;91.70
2042;DHT22;1026;51.460;7.252;2023-04-23T01:23:14;13.60;91.70
2042;DHT22;1026;51.460;7.252;2023-04-23T01:25:40;13.60;91.60
2042;DHT22;1026;51.460;7.252;2023-04-23T01:28:07;13.60;91.60
2042;DHT22;1026;51.460;7.252;2023-04-23T01:30:33;13.60;91.70
2042;DHT22;1026;51.460;7.252;2023-04-23T01:32:59;13.60;91.70
2042;DHT22;1026;51.460;7.252;2023-04-23T01:35:25;13.50;91.70
2042;DHT22;1026;51.460;7.252;2023-04-23T01:37:52;13.60;91.80
2042;DHT22;1026;51.460;7.252;2023-04-23T01:40:20;13.60;91.80
2042;DHT22;1026;51.460;7.252;2023-04-23T01:42:47;13.50;91.70
2042;DHT22;1026;51.460;7.252;2023-04-23T01:45:19;13.50;91.70
2042;DHT22;1026;51.460;7.252;2023-04-23T01:47:45;13.50;91.80
2042;DHT22;1026;51.460;7.252;2023-04-23T01:50:12;13.50;91.80
2042;DHT22;1026;51.460;7.252;2023-04-23T01:52:37;13.50;91.80
2042;DHT22;1026;51.460;7.252;2023-04-23T01:55:03;13.50;91.80
2042;DHT22;1026;51.460;7.252;2023-04-23T01:57:29;13.30;91.70
2042;DHT22;1026;51.460;7.252;2023-04-23T02:00:09;13.50;91.90
2042;DHT22;1026;51.460;7.252;2023-04-23T02:02:36;13.40;91.90
2042;DHT22;1026;51.460;7.252;2023-04-23T02:05:03;13.40;91.80
2042;DHT22;1026;51.460;7.252;2023-04-23T02:07:31;13.40;91.90
2042;DHT22;1026;51.460;7.252;2023-04-23T02:09:57;13.40;92.20
2042;DHT22;1026;51.460;7.252;2023-04-23T02:12:23;13.40;91.90
2042;DHT22;1026;51.460;7.252;2023-04-23T02:14:49;13.40;91.90
2042;DHT22;1026;51.460;7.252;2023-04-23T02:17:15;13.40;91.90
2042;DHT22;1026;51.460;7.252;2023-04-23T02:19:40;13.40;91.90
2042;DHT22;1026;51.460;7.252;2023-04-23T02:22:06;13.40;91.90
2042;DHT22;1026;51.460;7.252;2023-04-23T02:24:33;13.30;92.00
2042;DHT22;1026;51.460;7.252;2023-04-23T02:26:59;13.30;91.90
2042;DHT22;1026;51.460;7.252;2023-04-23T02:29:24;13.30;91.90
2042;DHT22;1026;51.460;7.252;2023-04-23T02:31:50;13.30;91.90
2042;DHT22;1026;51.460;7.252;2023-04-23T02:34:16;13.30;92.00
2042;DHT22;1026;51.460;7.252;2023-04-23T02:36:41;13.20;91.90
2042;DHT22;1026;51.460;7.252;2023-04-23T02:39:07;13.30;92.00
2042;DHT22;1026;51.460;7.252;2023-04-23T02:41:33;13.20;92.00
2042;DHT22;1026;51.460;7.252;2023-04-23T02:43:58;13.20;91.90
2042;DHT22;1026;51.460;7.252;2023-04-23T02:46:24;13.20;92.00
2042;DHT22;1026;51.460;7.252;2023-04-23T02:48:50;13.10;91.90
2042;DHT22;1026;51.460;7.252;2023-04-23T02:51:15;13.20;92.00
2042;DHT22;1026;51.460;7.252;2023-04-23T02:53:41;13.10;91.90
2042;DHT22;1026;51.460;7.252;2023-04-23T02:56:07;13.10;91.90
2042;DHT22;1026;51.460;7.252;2023-04-23T02:58:32;13.20;92.00
2042;DHT22;1026;51.460;7.252;2023-04-23T03:00:58;13.10;92.00
2042;DHT22;1026;51.460;7.252;2023-04-23T03:03:25;13.10;92.00
2042;DHT22;1026;51.460;7.252;2023-04-23T03:05:56;13.10;92.10
2042;DHT22;1026;51.460;7.252;2023-04-23T03:08:22;13.10;92.10
2042;DHT22;1026;51.460;7.252;2023-04-23T03:10:47;13.10;92.10
2042;DHT22;1026;51.460;7.252;2023-04-23T03:13:13;13.00;92.00
2042;DHT22;1026;51.460;7.252;2023-04-23T03:15:39;13.00;92.10
2042;DHT22;1026;51.460;7.252;2023-04-23T03:18:06;13.10;92.10
2042;DHT22;1026;51.460;7.252;2023-04-23T03:20:33;13.10;92.10
2042;DHT22;1026;51.460;7.252;2023-04-23T03:23:00;13.00;92.00
2042;DHT22;1026;51.460;7.252;2023-04-23T03:25:25;13.00;92.10
2042;DHT22;1026;51.460;7.252;2023-04-23T03:27:52;13.00;92.10
2042;DHT22;1026;51.460;7.252;2023-04-23T03:30:18;13.00;92.10
2042;DHT22;1026;51.460;7.252;2023-04-23T03:32:44;13.00;92.10
2042;DHT22;1026;51.460;7.252;2023-04-23T03:35:09;13.00;92.10
2042;DHT22;1026;51.460;7.252;2023-04-23T03:37:35;13.00;92.10
2042;DHT22;1026;51.460;7.252;2023-04-23T03:40:01;13.00;92.10
2042;DHT22;1026;51.460;7.252;2023-04-23T03:42:32;13.00;92.20
2042;DHT22;1026;51.460;7.252;2023-04-23T03:44:58;12.80;92.10
2042;DHT22;1026;51.460;7.252;2023-04-23T03:47:24;12.90;92.10
2042;DHT22;1026;51.460;7.252;2023-04-23T03:49:50;12.90;92.10
2042;DHT22;1026;51.460;7.252;2023-04-23T03:52:15;12.90;92.10
2042;DHT22;1026;51.460;7.252;2023-04-23T03:54:41;12.90;92.10
2042;DHT22;1026;51.460;7.252;2023-04-23T03:57:08;12.90;92.10
2042;DHT22;1026;51.460;7.252;2023-04-23T03:59:34;12.90;92.20
2042;DHT22;1026;51.460;7.252;2023-04-23T04:02:00;12.90;92.20
2042;DHT22;1026;51.460;7.252;2023-04-23T04:04:29;12.90;92.20
2042;DHT22;1026;51.460;7.252;2023-04-23T04:06:55;12.90;92.20
2042;DHT22;1026;51.460;7.252;2023-04-23T04:09:21;12.90;92.20
2042;DHT22;1026;51.460;7.252;2023-04-23T04:11:47;12.80;92.10
2042;DHT22;1026;51.460;7.252;2023-04-23T04:14:12;12.70;92.10
2042;DHT22;1026;51.460;7.252;2023-04-23T04:16:38;12.80;92.10
2042;DHT22;1026;51.460;7.252;2023-04-23T04:19:05;12.70;92.10
2042;DHT22;1026;51.460;7.252;2023-04-23T04:21:31;12.80;92.20
2042;DHT22;1026;51.460;7.252;2023-04-23T04:23:58;12.80;92.20
2042;DHT22;1026;51.460;7.252;2023-04-23T04:26:27;12.80;92.20
2042;DHT22;1026;51.460;7.252;2023-04-23T04:28:52;12.70;92.10
2042;DHT22;1026;51.460;7.252;2023-04-23T04:31:18;12.70;92.10
2042;DHT22;1026;51.460;7.252;2023-04-23T04:33:46;12.80;92.20
2042;DHT22;1026;51.460;7.252;2023-04-23T04:36:12;12.80;92.20
2042;DHT22;1026;51.460;7.252;2023-04-23T04:38:39;12.70;92.20
2042;DHT22;1026;51.460;7.252;2023-04-23T04:41:05;12.70;92.20
2042;DHT22;1026;51.460;7.252;2023-04-23T04:43:31;12.70;92.20
2042;DHT22;1026;51.460;7.252;2023-04-23T04:45:57;12.70;92.20
2042;DHT22;1026;51.460;7.252;2023-04-23T04:48:24;12.70;92.20
2042;DHT22;1026;51.460;7.252;2023-04-23T04:50:50;12.70;92.20
2042;DHT22;1026;51.460;7.252;2023-04-23T04:53:16;12.60;92.10
2042;DHT22;1026;51.460;7.252;2023-04-23T04:55:42;12.70;92.20
2042;DHT22;1026;51.460;7.252;2023-04-23T04:58:07;12.70;92.20
2042;DHT22;1026;51.460;7.252;2023-04-23T05:00:33;12.70;92.30
2042;DHT22;1026;51.460;7.252;2023-04-23T05:02:59;12.70;92.20
2042;DHT22;1026;51.460;7.252;2023-04-23T05:05:26;12.60;92.20
2042;DHT22;1026;51.460;7.252;2023-04-23T05:07:52;12.60;92.20
2042;DHT22;1026;51.460;7.252;2023-04-23T05:10:20;12.60;92.20
2042;DHT22;1026;51.460;7.252;2023-04-23T05:12:45;12.60;92.20
2042;DHT22;1026;51.460;7.252;2023-04-23T05:15:13;12.60;92.20
2042;DHT22;1026;51.460;7.252;2023-04-23T05:17:39;12.60;92.20
2042;DHT22;1026;51.460;7.252;2023-04-23T05:20:05;12.60;92.20
2042;DHT22;1026;51.460;7.252;2023-04-23T05:22:39;12.60;92.20
2042;DHT22;1026;51.460;7.252;2023-04-23T05:25:06;12.50;92.20
2042;DHT22;1026;51.460;7.252;2023-04-23T05:27:32;12.60;92.20
2042;DHT22;1026;51.460;7.252;2023-04-23T05:29:58;12.60;92.20
2042;DHT22;1026;51.460;7.252;2023-04-23T05:32:24;12.50;92.20
2042;DHT22;1026;51.460;7.252;2023-04-23T05:34:50;12.50;92.20
2042;DHT22;1026;51.460;7.252;2023-04-23T05:37:16;12.50;92.30
2042;DHT22;1026;51.460;7.252;2023-04-23T05:39:41;12.50;92.30
2042;DHT22;1026;51.460;7.252;2023-04-23T05:42:07;12.50;92.30
2042;DHT22;1026;51.460;7.252;2023-04-23T05:44:33;12.40;92.30
2042;DHT22;1026;51.460;7.252;2023-04-23T05:46:58;12.50;92.30
2042;DHT22;1026;51.460;7.252;2023-04-23T05:49:24;12.50;92.30
2042;DHT22;1026;51.460;7.252;2023-04-23T05:51:51;12.40;92.30
2042;DHT22;1026;51.460;7.252;2023-04-23T05:54:17;12.50;92.40
2042;DHT22;1026;51.460;7.252;2023-04-23T05:56:43;12.50;92.30
2042;DHT22;1026;51.460;7.252;2023-04-23T05:59:09;12.40;92.30
2042;DHT22;1026;51.460;7.252;2023-04-23T06:01:35;12.40;92.30
2042;DHT22;1026;51.460;7.252;2023-04-23T06:04:01;12.40;92.30
2042;DHT22;1026;51.460;7.252;2023-04-23T06:06:27;12.30;92.30
2042;DHT22;1026;51.460;7.252;2023-04-23T06:08:52;12.40;92.30
2042;DHT22;1026;51.460;7.252;2023-04-23T06:11:18;12.40;92.40
2042;DHT22;1026;51.460;7.252;2023-04-23T06:13:45;12.40;92.40
2042;DHT22;1026;51.460;7.252;2023-04-23T06:16:11;12.40;92.40
2042;DHT22;1026;51.460;7.252;2023-04-23T06:18:37;12.30;92.30
2042;DHT22;1026;51.460;7.252;2023-04-23T06:21:03;12.40;92.40
2042;DHT22;1026;51.460;7.252;2023-04-23T06:23:31;12.40;92.40
2042;DHT22;1026;51.460;7.252;2023-04-23T06:25:56;12.40;92.40
2042;DHT22;1026;51.460;7.252;2023-04-23T06:28:22;12.40;92.40
2042;DHT22;1026;51.460;7.252;2023-04-23T06:30:48;12.40;92.30
2042;DHT22;1026;51.460;7.252;2023-04-23T06:33:14;12.40;92.30
2042;DHT22;1026;51.460;7.252;2023-04-23T06:35:40;12.40;92.30
2042;DHT22;1026;51.460;7.252;2023-04-23T06:38:05;12.40;92.40
2042;DHT22;1026;51.460;7.252;2023-04-23T06:40:32;12.40;92.40
2042;DHT22;1026;51.460;7.252;2023-04-23T06:42:58;12.40;92.30
2042;DHT22;1026;51.460;7.252;2023-04-23T06:45:24;12.40;92.30
2042;DHT22;1026;51.460;7.252;2023-04-23T06:47:56;12.40;92.40
2042;DHT22;1026;51.460;7.252;2023-04-23T06:50:22;12.40;92.40
2042;DHT22;1026;51.460;7.252;2023-04-23T06:52:48;12.40;92.30
2042;DHT22;1026;51.460;7.252;2023-04-23T06:55:14;12.40;92.30
2042;DHT22;1026;51.460;7.252;2023-04-23T06:57:39;12.40;92.30
2042;DHT22;1026;51.460;7.252;2023-04-23T07:00:06;12.30;92.30
2042;DHT22;1026;51.460;7.252;2023-04-23T07:02:33;12.40;92.30
2042;DHT22;1026;51.460;7.252;2023-04-23T07:04:59;12.30;92.30
2042;DHT22;1026;51.460;7.252;2023-04-23T07:07:25;12.50;92.30
2042;DHT22;1026;51.460;7.252;2023-04-23T07:09:51;12.50;92.50
2042;DHT22;1026;51.460;7.252;2023-04-23T07:12:16;12.30;92.30
2042;DHT22;1026;51.460;7.252;2023-04-23T07:14:42;12.50;92.40
2042;DHT22;1026;51.460;7.252;2023-04-23T07:17:08;12.50;92.40
2042;DHT22;1026;51.460;7.252;2023-04-23T07:19:35;12.50;92.40
2042;DHT22;1026;51.460;7.252;2023-04-23T07:22:01;12.50;92.40
2042;DHT22;1026;51.460;7.252;2023-04-23T07:24:26;12.40;92.30
2042;DHT22;1026;51.460;7.252;2023-04-23T07:26:52;12.40;92.30
2042;DHT22;1026;51.460;7.252;2023-04-23T07:29:25;12.50;92.30
2042;DHT22;1026;51.460;7.252;2023-04-23T07:31:50;12.50;92.40
2042;DHT22;1026;51.460;7.252;2023-04-23T07:34:16;12.50;92.30
2042;DHT22;1026;51.460;7.252;2023-04-23T07:36:42;12.50;92.30
2042;DHT22;1026;51.460;7.252;2023-04-23T07:39:07;12.50;92.40
2042;DHT22;1026;51.460;7.252;2023-04-23T07:41:33;12.50;92.40
2042;DHT22;1026;51.460;7.252;2023-04-23T07:43:59;12.50;92.40
2042;DHT22;1026;51.460;7.252;2023-04-23T07:46:25;12.50;92.40
2042;DHT22;1026;51.460;7.252;2023-04-23T07:48:51;12.40;92.30
2042;DHT22;1026;51.460;7.252;2023-04-23T07:51:17;12.60;92.40
2042;DHT22;1026;51.460;7.252;2023-04-23T07:53:43;12.60;92.40
2042;DHT22;1026;51.460;7.252;2023-04-23T07:56:11;12.60;92.40
2042;DHT22;1026;51.460;7.252;2023-04-23T07:58:37;12.50;92.30
2042;DHT22;1026;51.460;7.252;2023-04-23T08:01:03;12.60;92.30
2042;DHT22;1026;51.460;7.252;2023-04-23T08:03:37;12.60;92.30
2042;DHT22;1026;51.460;7.252;2023-04-23T08:06:03;12.60;92.40
2042;DHT22;1026;51.460;7.252;2023-04-23T08:08:35;12.50;92.30
2042;DHT22;1026;51.460;7.252;2023-04-23T08:11:07;12.60;92.40
2042;DHT22;1026;51.460;7.252;2023-04-23T08:13:33;12.70;92.40
2042;DHT22;1026;51.460;7.252;2023-04-23T08:15:59;12.70;92.50
2042;DHT22;1026;51.460;7.252;2023-04-23T08:18:25;12.70;92.50
2042;DHT22;1026;51.460;7.252;2023-04-23T08:20:50;12.50;92.70
2042;DHT22;1026;51.460;7.252;2023-04-23T08:23:16;12.70;92.40
2042;DHT22;1026;51.460;7.252;2023-04-23T08:25:42;12.70;92.30
2042;DHT22;1026;51.460;7.252;2023-04-23T08:28:07;12.70;92.40
2042;DHT22;1026;51.460;7.252;2023-04-23T08:30:33;12.70;92.40
2042;DHT22;1026;51.460;7.252;2023-04-23T08:32:59;12.70;92.40
2042;DHT22;1026;51.460;7.252;2023-04-23T08:35:25;12.70;92.30
2042;DHT22;1026;51.460;7.252;2023-04-23T08:37:50;12.70;92.30
2042;DHT22;1026;51.460;7.252;2023-04-23T08:40:16;12.70;92.30
2042;DHT22;1026;51.460;7.252;2023-04-23T08:42:50;12.60;92.30
2042;DHT22;1026;51.460;7.252;2023-04-23T08:45:18;12.80;92.40
2042;DHT22;1026;51.460;7.252;2023-04-23T08:47:44;12.80;92.40
2042;DHT22;1026;51.460;7.252;2023-04-23T08:50:11;12.80;92.40
2042;DHT22;1026;51.460;7.252;2023-04-23T08:52:40;12.80;92.40
2042;DHT22;1026;51.460;7.252;2023-04-23T08:55:09;12.80;92.40
2042;DHT22;1026;51.460;7.252;2023-04-23T08:57:37;12.80;92.40
2042;DHT22;1026;51.460;7.252;2023-04-23T09:00:04;12.80;92.50
2042;DHT22;1026;51.460;7.252;2023-04-23T09:02:32;12.70;92.40
2042;DHT22;1026;51.460;7.252;2023-04-23T09:04:58;12.80;92.40
2042;DHT22;1026;51.460;7.252;2023-04-23T09:07:24;12.80;92.30
2042;DHT22;1026;51.460;7.252;2023-04-23T09:09:50;12.80;92.30
2042;DHT22;1026;51.460;7.252;2023-04-23T09:12:16;12.90;92.30
2042;DHT22;1026;51.460;7.252;2023-04-23T09:14:41;12.90;92.30
2042;DHT22;1026;51.460;7.252;2023-04-23T09:17:08;12.90;92.40
2042;DHT22;1026;51.460;7.252;2023-04-23T09:19:34;12.80;92.30
2042;DHT22;1026;51.460;7.252;2023-04-23T09:22:00;12.90;92.30
2042;DHT22;1026;51.460;7.252;2023-04-23T09:24:26;12.90;92.40
2042;DHT22;1026;51.460;7.252;2023-04-23T09:26:52;12.90;92.30
2042;DHT22;1026;51.460;7.252;2023-04-23T09:29:21;12.80;92.30
2042;DHT22;1026;51.460;7.252;2023-04-23T09:31:49;13.00;92.60
2042;DHT22;1026;51.460;7.252;2023-04-23T09:34:18;13.00;92.50
2042;DHT22;1026;51.460;7.252;2023-04-23T09:36:45;13.00;92.60
2042;DHT22;1026;51.460;7.252;2023-04-23T09:39:14;13.00;92.70
2042;DHT22;1026;51.460;7.252;2023-04-23T09:41:40;13.00;92.60
2042;DHT22;1026;51.460;7.252;2023-04-23T09:44:06;13.10;92.70
2042;DHT22;1026;51.460;7.252;2023-04-23T09:46:36;12.90;92.60
2042;DHT22;1026;51.460;7.252;2023-04-23T09:49:03;13.10;92.70
2042;DHT22;1026;51.460;7.252;2023-04-23T09:51:30;13.00;92.80
2042;DHT22;1026;51.460;7.252;2023-04-23T09:53:56;13.10;92.70
2042;DHT22;1026;51.460;7.252;2023-04-23T09:56:23;13.10;92.80
2042;DHT22;1026;51.460;7.252;2023-04-23T09:58:49;13.20;92.70
2042;DHT22;1026;51.460;7.252;2023-04-23T10:01:15;13.20;92.70
2042;DHT22;1026;51.460;7.252;2023-04-23T10:03:41;13.20;93.00
2042;DHT22;1026;51.460;7.252;2023-04-23T10:06:12;13.20;92.70
2042;DHT22;1026;51.460;7.252;2023-04-23T10:08:40;13.30;92.70
2042;DHT22;1026;51.460;7.252;2023-04-23T10:11:06;13.20;92.70
2042;DHT22;1026;51.460;7.252;2023-04-23T10:13:34;13.30;92.70
2042;DHT22;1026;51.460;7.252;2023-04-23T10:16:00;13.30;92.70
2042;DHT22;1026;51.460;7.252;2023-04-23T10:18:29;13.20;92.60
2042;DHT22;1026;51.460;7.252;2023-04-23T10:20:57;13.40;92.70
2042;DHT22;1026;51.460;7.252;2023-04-23T10:23:23;13.40;92.60
2042;DHT22;1026;51.460;7.252;2023-04-23T10:25:52;13.40;92.60
2042;DHT22;1026;51.460;7.252;2023-04-23T10:28:18;13.50;92.60
2042;DHT22;1026;51.460;7.252;2023-04-23T10:30:52;13.30;92.50
2042;DHT22;1026;51.460;7.252;2023-04-23T10:33:19;13.50;92.60
2042;DHT22;1026;51.460;7.252;2023-04-23T10:35:46;13.50;92.50
2042;DHT22;1026;51.460;7.252;2023-04-23T10:38:13;13.40;92.40
2042;DHT22;1026;51.460;7.252;2023-04-23T10:40:43;13.60;92.40
2042;DHT22;1026;51.460;7.252;2023-04-23T10:43:10;13.60;92.40
2042;DHT22;1026;51.460;7.252;2023-04-23T10:45:36;13.60;92.30
2042;DHT22;1026;51.460;7.252;2023-04-23T10:48:02;13.70;92.30
2042;DHT22;1026;51.460;7.252;2023-04-23T10:50:33;13.60;92.20
2042;DHT22;1026;51.460;7.252;2023-04-23T10:53:01;13.70;92.20
2042;DHT22;1026;51.460;7.252;2023-04-23T10:55:29;13.70;92.20
2042;DHT22;1026;51.460;7.252;2023-04-23T10:58:04;13.80;92.10
2042;DHT22;1026;51.460;7.252;2023-04-23T11:00:45;13.80;92.10
2042;DHT22;1026;51.460;7.252;2023-04-23T11:03:31;13.80;92.10
2042;DHT22;1026;51.460;7.252;2023-04-23T11:06:02;13.90;92.10
2042;DHT22;1026;51.460;7.252;2023-04-23T11:08:29;13.80;92.00
2042;DHT22;1026;51.460;7.252;2023-04-23T11:10:58;13.90;91.90
2042;DHT22;1026;51.460;7.252;2023-04-23T11:13:26;13.90;91.90
2042;DHT22;1026;51.460;7.252;2023-04-23T11:16:11;13.80;91.80
2042;DHT22;1026;51.460;7.252;2023-04-23T11:18:57;14.00;91.70
2042;DHT22;1026;51.460;7.252;2023-04-23T11:24:27;14.00;91.70
2042;DHT22;1026;51.460;7.252;2023-04-23T11:26:54;14.10;91.80
2042;DHT22;1026;51.460;7.252;2023-04-23T11:29:21;14.10;91.60
2042;DHT22;1026;51.460;7.252;2023-04-23T11:31:48;14.10;91.70
2042;DHT22;1026;51.460;7.252;2023-04-23T11:34:15;14.20;91.70
2042;DHT22;1026;51.460;7.252;2023-04-23T11:36:41;14.20;91.60
2042;DHT22;1026;51.460;7.252;2023-04-23T11:39:07;14.20;91.60
2042;DHT22;1026;51.460;7.252;2023-04-23T11:41:35;14.30;91.70
2042;DHT22;1026;51.460;7.252;2023-04-23T11:44:01;14.30;91.40
2042;DHT22;1026;51.460;7.252;2023-04-23T11:46:33;14.20;91.40
2042;DHT22;1026;51.460;7.252;2023-04-23T11:48:59;14.30;91.40
2042;DHT22;1026;51.460;7.252;2023-04-23T11:51:25;14.40;91.40
2042;DHT22;1026;51.460;7.252;2023-04-23T11:53:51;14.30;91.30
2042;DHT22;1026;51.460;7.252;2023-04-23T11:56:17;14.50;91.30
2042;DHT22;1026;51.460;7.252;2023-04-23T11:58:44;14.50;91.20
2042;DHT22;1026;51.460;7.252;2023-04-23T12:01:10;14.50;91.20
2042;DHT22;1026;51.460;7.252;2023-04-23T12:03:37;14.60;91.10
2042;DHT22;1026;51.460;7.252;2023-04-23T12:06:04;14.60;91.00
2042;DHT22;1026;51.460;7.252;2023-04-23T12:08:33;14.50;90.80
2042;DHT22;1026;51.460;7.252;2023-04-23T12:11:02;14.60;90.60
2042;DHT22;1026;51.460;7.252;2023-04-23T12:13:30;14.60;90.20
2042;DHT22;1026;51.460;7.252;2023-04-23T12:16:00;14.70;90.40
2042;DHT22;1026;51.460;7.252;2023-04-23T12:18:28;14.60;90.70
2042;DHT22;1026;51.460;7.252;2023-04-23T12:20:54;14.60;90.30
2042;DHT22;1026;51.460;7.252;2023-04-23T12:23:27;14.70;90.40
2042;DHT22;1026;51.460;7.252;2023-04-23T12:25:53;14.70;90.30
2042;DHT22;1026;51.460;7.252;2023-04-23T12:28:22;14.80;90.50
2042;DHT22;1026;51.460;7.252;2023-04-23T12:30:48;14.80;90.40
2042;DHT22;1026;51.460;7.252;2023-04-23T12:33:14;14.80;90.40
2042;DHT22;1026;51.460;7.252;2023-04-23T12:35:42;14.90;90.50
2042;DHT22;1026;51.460;7.252;2023-04-23T12:38:24;14.80;89.80
2042;DHT22;1026;51.460;7.252;2023-04-23T12:40:52;14.90;90.10
2042;DHT22;1026;51.460;7.252;2023-04-23T12:43:18;15.00;90.20
2042;DHT22;1026;51.460;7.252;2023-04-23T12:45:44;15.00;90.10
2042;DHT22;1026;51.460;7.252;2023-04-23T12:48:10;15.00;89.60
2042;DHT22;1026;51.460;7.252;2023-04-23T12:50:36;15.10;89.80
2042;DHT22;1026;51.460;7.252;2023-04-23T12:53:02;15.10;89.30
2042;DHT22;1026;51.460;7.252;2023-04-23T12:55:28;15.20;89.60
2042;DHT22;1026;51.460;7.252;2023-04-23T12:57:54;15.20;89.50
2042;DHT22;1026;51.460;7.252;2023-04-23T13:00:21;15.20;89.10
2042;DHT22;1026;51.460;7.252;2023-04-23T13:02:47;15.30;89.10
2042;DHT22;1026;51.460;7.252;2023-04-23T13:05:12;15.30;89.00
2042;DHT22;1026;51.460;7.252;2023-04-23T13:07:38;15.30;88.70
2042;DHT22;1026;51.460;7.252;2023-04-23T13:10:04;15.30;88.90
2042;DHT22;1026;51.460;7.252;2023-04-23T13:12:30;15.40;88.80
2042;DHT22;1026;51.460;7.252;2023-04-23T13:14:56;15.30;88.50
2042;DHT22;1026;51.460;7.252;2023-04-23T13:17:22;15.50;88.20
2042;DHT22;1026;51.460;7.252;2023-04-23T13:19:52;15.50;88.00
2042;DHT22;1026;51.460;7.252;2023-04-23T13:22:17;15.50;87.60
2042;DHT22;1026;51.460;7.252;2023-04-23T13:24:43;15.50;86.40
2042;DHT22;1026;51.460;7.252;2023-04-23T13:27:09;15.50;87.10
2042;DHT22;1026;51.460;7.252;2023-04-23T13:29:35;15.60;87.20
2042;DHT22;1026;51.460;7.252;2023-04-23T13:32:01;15.60;87.30
2042;DHT22;1026;51.460;7.252;2023-04-23T13:34:27;15.60;87.00
2042;DHT22;1026;51.460;7.252;2023-04-23T13:36:52;15.70;87.30
2042;DHT22;1026;51.460;7.252;2023-04-23T13:39:18;15.60;87.20
2042;DHT22;1026;51.460;7.252;2023-04-23T13:41:44;15.70;86.70
2042;DHT22;1026;51.460;7.252;2023-04-23T13:44:10;15.70;86.40
2042;DHT22;1026;51.460;7.252;2023-04-23T13:46:38;15.80;86.30
2042;DHT22;1026;51.460;7.252;2023-04-23T13:49:05;15.80;86.50
2042;DHT22;1026;51.460;7.252;2023-04-23T13:51:30;15.90;85.80
2042;DHT22;1026;51.460;7.252;2023-04-23T13:53:56;15.90;85.30
2042;DHT22;1026;51.460;7.252;2023-04-23T13:56:23;16.00;85.90
2042;DHT22;1026;51.460;7.252;2023-04-23T13:58:49;16.00;86.00
2042;DHT22;1026;51.460;7.252;2023-04-23T14:01:17;16.00;86.10
2042;DHT22;1026;51.460;7.252;2023-04-23T14:03:43;16.00;85.70
2042;DHT22;1026;51.460;7.252;2023-04-23T14:06:09;16.10;86.00
2042;DHT22;1026;51.460;7.252;2023-04-23T14:08:35;16.10;85.40
2042;DHT22;1026;51.460;7.252;2023-04-23T14:11:02;16.10;85.40
2042;DHT22;1026;51.460;7.252;2023-04-23T14:13:29;16.20;84.30
2042;DHT22;1026;51.460;7.252;2023-04-23T14:15:55;16.20;85.10
2042;DHT22;1026;51.460;7.252;2023-04-23T14:18:21;16.20;85.40
2042;DHT22;1026;51.460;7.252;2023-04-23T14:20:47;16.30;85.70
2042;DHT22;1026;51.460;7.252;2023-04-23T14:26:02;16.30;84.10
2042;DHT22;1026;51.460;7.252;2023-04-23T14:28:33;16.40;83.20
2042;DHT22;1026;51.460;7.252;2023-04-23T14:31:00;16.40;82.00
2042;DHT22;1026;51.460;7.252;2023-04-23T14:33:26;16.40;82.80
2042;DHT22;1026;51.460;7.252;2023-04-23T14:35:52;16.40;83.60
2042;DHT22;1026;51.460;7.252;2023-04-23T14:38:18;16.50;83.70
2042;DHT22;1026;51.460;7.252;2023-04-23T14:40:43;16.50;82.80
2042;DHT22;1026;51.460;7.252;2023-04-23T14:43:09;16.50;82.60
2042;DHT22;1026;51.460;7.252;2023-04-23T14:45:35;16.50;82.90
2042;DHT22;1026;51.460;7.252;2023-04-23T14:48:00;16.60;83.80
2042;DHT22;1026;51.460;7.252;2023-04-23T14:50:26;16.60;84.40
2042;DHT22;1026;51.460;7.252;2023-04-23T14:52:53;16.70;84.20
2042;DHT22;1026;51.460;7.252;2023-04-23T14:55:20;16.70;83.30
2042;DHT22;1026;51.460;7.252;2023-04-23T14:57:46;16.60;83.60
2042;DHT22;1026;51.460;7.252;2023-04-23T15:00:12;16.70;83.10
2042;DHT22;1026;51.460;7.252;2023-04-23T15:02:40;16.70;83.10
2042;DHT22;1026;51.460;7.252;2023-04-23T15:05:07;16.80;82.20
2042;DHT22;1026;51.460;7.252;2023-04-23T15:07:34;16.70;82.70
2042;DHT22;1026;51.460;7.252;2023-04-23T15:10:00;16.80;83.00
2042;DHT22;1026;51.460;7.252;2023-04-23T15:12:48;16.70;82.00
2042;DHT22;1026;51.460;7.252;2023-04-23T15:15:34;16.80;84.10
2042;DHT22;1026;51.460;7.252;2023-04-23T15:18:01;16.80;79.10
2042;DHT22;1026;51.460;7.252;2023-04-23T15:20:27;16.90;81.20
2042;DHT22;1026;51.460;7.252;2023-04-23T15:22:53;16.90;83.60
2042;DHT22;1026;51.460;7.252;2023-04-23T15:25:18;16.90;83.90
2042;DHT22;1026;51.460;7.252;2023-04-23T15:27:44;16.90;84.10
2042;DHT22;1026;51.460;7.252;2023-04-23T15:30:10;16.90;83.90
2042;DHT22;1026;51.460;7.252;2023-04-23T15:32:36;16.90;83.50
2042;DHT22;1026;51.460;7.252;2023-04-23T15:35:02;16.90;81.90
2042;DHT22;1026;51.460;7.252;2023-04-23T15:37:28;17.00;82.30
2042;DHT22;1026;51.460;7.252;2023-04-23T15:39:56;16.90;82.30
2042;DHT22;1026;51.460;7.252;2023-04-23T15:42:22;16.90;82.00
2042;DHT22;1026;51.460;7.252;2023-04-23T15:44:50;17.00;81.20
2042;DHT22;1026;51.460;7.252;2023-04-23T15:47:19;17.00;81.20
2042;DHT22;1026;51.460;7.252;2023-04-23T15:49:46;16.90;81.70
2042;DHT22;1026;51.460;7.252;2023-04-23T15:52:11;17.00;82.70
2042;DHT22;1026;51.460;7.252;2023-04-23T15:54:37;16.90;82.00
2042;DHT22;1026;51.460;7.252;2023-04-23T15:57:03;17.00;82.20
2042;DHT22;1026;51.460;7.252;2023-04-23T15:59:28;17.00;82.00
2042;DHT22;1026;51.460;7.252;2023-04-23T16:01:54;17.00;84.00
2042;DHT22;1026;51.460;7.252;2023-04-23T16:04:20;17.00;82.80